createdAt,value
2022-11-02T00:00:35.504Z,4.03
2022-11-02T00:03:03.476Z,3.53
2022-11-02T00:05:31.587Z,3.53
2022-11-02T00:07:59.197Z,3.00
2022-11-02T00:10:26.944Z,2.67
2022-11-02T00:12:54.299Z,3.58
2022-11-02T00:15:24.380Z,2.50
2022-11-02T00:17:59.738Z,3.63
2022-11-02T00:20:27.909Z,3.42
2022-11-02T00:22:58.056Z,3.00
2022-11-02T00:25:26.544Z,2.50
2022-11-02T00:27:53.869Z,3.95
2022-11-02T00:30:21.729Z,3.63
2022-11-02T00:32:50.058Z,2.80
2022-11-02T00:35:17.481Z,4.03
2022-11-02T00:37:45.011Z,3.20
2022-11-02T00:40:12.688Z,3.22
2022-11-02T00:42:40.074Z,3.85
2022-11-02T00:45:08.530Z,3.95
2022-11-02T00:47:35.930Z,3.58
2022-11-02T00:50:03.917Z,3.72
2022-11-02T00:52:32.418Z,4.03
2022-11-02T00:54:59.924Z,4.60
2022-11-02T00:57:27.585Z,3.42
2022-11-02T00:59:55.750Z,5.45
2022-11-02T01:02:23.256Z,5.28
2022-11-02T01:04:50.854Z,5.22
2022-11-02T01:07:19.762Z,4.97
2022-11-02T01:09:47.168Z,5.22
2022-11-02T01:12:14.941Z,5.05
2022-11-02T01:14:42.854Z,4.50
2022-11-02T01:17:10.259Z,5.97
2022-11-02T01:19:37.549Z,4.57
2022-11-02T01:22:05.207Z,5.15
2022-11-02T01:24:34.173Z,4.38
2022-11-02T01:27:03.217Z,4.00
2022-11-02T01:29:30.506Z,3.75
2022-11-02T01:31:59.601Z,3.80
2022-11-02T01:34:26.929Z,4.30
2022-11-02T01:36:54.472Z,4.47
2022-11-02T01:39:21.784Z,3.67
2022-11-02T01:41:52.874Z,4.03
2022-11-02T01:44:35.026Z,5.55
2022-11-02T01:47:08.250Z,4.88
2022-11-02T01:49:41.904Z,3.85
2022-11-02T01:52:27.995Z,4.32
2022-11-02T01:55:08.027Z,4.68
2022-11-02T01:57:37.673Z,4.25
2022-11-02T02:00:13.278Z,3.90
2022-11-02T02:02:49.627Z,4.38
2022-11-02T02:05:18.357Z,4.70
2022-11-02T02:07:46.683Z,3.63
2022-11-02T02:10:14.550Z,3.92
2022-11-02T02:12:43.043Z,4.18
2022-11-02T02:15:12.845Z,4.10
2022-11-02T02:18:07.524Z,4.97
2022-11-02T02:20:50.043Z,3.50
2022-11-02T02:23:58.551Z,4.55
2022-11-02T02:26:47.961Z,3.63
2022-11-02T02:29:34.340Z,4.85
2022-11-02T02:32:11.881Z,4.43
2022-11-02T02:34:51.581Z,4.25
2022-11-02T02:37:31.296Z,3.78
2022-11-02T02:40:14.257Z,4.95
2022-11-02T02:42:53.352Z,4.05
2022-11-02T02:45:29.781Z,4.53
2022-11-02T02:48:03.737Z,4.18
2022-11-02T02:50:37.629Z,3.55
2022-11-02T02:53:07.708Z,5.15
2022-11-02T02:55:41.346Z,4.43
2022-11-02T02:58:16.594Z,4.45
2022-11-02T03:00:45.648Z,4.38
2022-11-02T03:03:20.142Z,5.22
2022-11-02T03:06:26.562Z,5.22
2022-11-02T03:09:45.430Z,3.83
2022-11-02T03:12:50.334Z,4.07
2022-11-02T03:15:28.198Z,4.07
2022-11-02T03:18:34.086Z,3.28
2022-11-02T03:21:36.946Z,4.80
2022-11-02T03:24:16.882Z,3.00
2022-11-02T03:27:00.418Z,4.78
2022-11-02T03:29:59.539Z,4.20
2022-11-02T03:32:37.128Z,4.07
2022-11-02T03:35:12.680Z,3.88
2022-11-02T03:37:48.430Z,3.40
2022-11-02T03:40:31.124Z,4.05
2022-11-02T03:43:00.803Z,3.78
2022-11-02T03:45:36.202Z,3.85
2022-11-02T03:48:07.773Z,3.72
2022-11-02T03:50:38.699Z,3.22
2022-11-02T03:53:44.915Z,4.07
2022-11-02T03:56:21.574Z,2.95
2022-11-02T03:58:48.954Z,3.20
2022-11-02T04:01:18.018Z,4.55
2022-11-02T04:03:47.357Z,3.75
2022-11-02T04:06:15.386Z,2.97
2022-11-02T04:08:45.790Z,3.65
2022-11-02T04:11:33.169Z,3.53
2022-11-02T04:14:25.363Z,3.63
2022-11-02T04:17:15.798Z,3.55
2022-11-02T04:19:49.869Z,4.45
2022-11-02T04:22:37.795Z,3.92
2022-11-02T04:25:19.056Z,3.65
2022-11-02T04:27:54.407Z,3.97
2022-11-02T04:30:27.355Z,3.45
2022-11-02T04:33:14.753Z,3.28
2022-11-02T04:35:49.967Z,2.97
2022-11-02T04:38:36.991Z,3.17
2022-11-02T04:41:23.041Z,2.95
2022-11-02T04:43:54.437Z,4.10
2022-11-02T04:46:23.603Z,4.17
2022-11-02T04:48:51.826Z,3.88
2022-11-02T04:51:20.864Z,4.15
2022-11-02T04:53:49.599Z,4.03
2022-11-02T04:56:18.076Z,3.73
2022-11-02T04:58:50.615Z,3.40
2022-11-02T05:01:20.130Z,4.80
2022-11-02T05:03:49.133Z,3.67
2022-11-02T05:06:18.992Z,4.13
2022-11-02T05:08:47.849Z,4.85
2022-11-02T05:11:16.055Z,5.38
2022-11-02T05:13:44.801Z,3.13
2022-11-02T05:16:14.839Z,3.97
2022-11-02T05:18:43.287Z,4.32
2022-11-02T05:21:12.622Z,4.50
2022-11-02T05:23:40.797Z,4.13
2022-11-02T05:26:12.255Z,5.22
2022-11-02T05:28:43.405Z,4.28
2022-11-02T05:31:10.956Z,4.93
2022-11-02T05:33:38.251Z,4.80
2022-11-02T05:36:13.822Z,5.20
2022-11-02T05:38:45.000Z,4.32
2022-11-02T05:41:13.601Z,4.97
2022-11-02T05:43:42.228Z,4.57
2022-11-02T05:46:14.917Z,4.38
2022-11-02T05:48:42.641Z,4.60
2022-11-02T05:51:10.288Z,6.03
2022-11-02T05:53:38.597Z,4.85
2022-11-02T05:56:08.201Z,4.50
2022-11-02T05:58:36.147Z,4.97
2022-11-02T06:01:06.298Z,5.03
2022-11-02T06:03:34.247Z,4.93
2022-11-02T06:06:04.947Z,5.13
2022-11-02T06:08:36.373Z,4.67
2022-11-02T06:11:13.741Z,4.45
2022-11-02T06:13:42.005Z,4.33
2022-11-02T06:16:11.424Z,4.27
2022-11-02T06:18:39.109Z,3.88
2022-11-02T06:21:06.894Z,4.90
2022-11-02T06:23:42.978Z,4.03
2022-11-02T06:26:12.722Z,4.05
2022-11-02T06:28:40.025Z,5.03
2022-11-02T06:31:07.789Z,4.10
2022-11-02T06:33:35.140Z,5.95
2022-11-02T06:36:02.391Z,4.85
2022-11-02T06:38:29.683Z,4.63
2022-11-02T06:40:59.172Z,5.22
2022-11-02T06:43:26.822Z,6.03
2022-11-02T06:45:56.004Z,4.97
2022-11-02T06:48:29.842Z,5.70
2022-11-02T06:51:00.773Z,4.80
2022-11-02T06:53:28.146Z,5.85
2022-11-02T06:55:56.874Z,5.72
2022-11-02T06:58:24.919Z,4.68
2022-11-02T07:00:59.054Z,5.38
2022-11-02T07:03:27.024Z,4.35
2022-11-02T07:05:54.436Z,4.88
2022-11-02T07:08:22.342Z,5.80
2022-11-02T07:10:50.179Z,4.63
2022-11-02T07:13:17.883Z,4.07
2022-11-02T07:15:45.210Z,3.60
2022-11-02T07:18:13.020Z,3.97
2022-11-02T07:20:40.259Z,5.38
2022-11-02T07:23:09.001Z,4.60
2022-11-02T07:25:36.536Z,4.85
2022-11-02T07:28:04.447Z,4.65
2022-11-02T07:30:33.741Z,4.57
2022-11-02T07:33:01.553Z,5.55
2022-11-02T07:35:28.976Z,4.50
2022-11-02T07:38:01.480Z,4.72
2022-11-02T07:40:30.196Z,4.60
2022-11-02T07:42:58.035Z,5.00
2022-11-02T07:45:43.921Z,3.80
2022-11-02T07:48:11.193Z,4.97
2022-11-02T07:50:38.449Z,4.10
2022-11-02T07:53:06.041Z,4.22
2022-11-02T07:55:33.530Z,4.05
2022-11-02T07:58:08.066Z,4.75
2022-11-02T08:00:37.514Z,4.07
2022-11-02T08:03:06.411Z,4.00
2022-11-02T08:05:36.316Z,5.25
2022-11-02T08:08:09.168Z,3.25
2022-11-02T08:10:37.498Z,3.40
2022-11-02T08:13:12.279Z,3.15
2022-11-02T08:15:39.953Z,3.88
2022-11-02T08:18:15.869Z,3.03
2022-11-02T08:20:43.581Z,3.45
2022-11-02T08:23:11.265Z,3.10
2022-11-02T08:25:39.600Z,3.00
2022-11-02T08:28:08.371Z,3.85
2022-11-02T08:30:37.312Z,3.05
2022-11-02T08:33:11.759Z,2.63
2022-11-02T08:35:40.594Z,2.97
2022-11-02T08:38:09.786Z,2.85
2022-11-02T08:40:37.861Z,1.92
2022-11-02T08:43:07.609Z,1.60
2022-11-02T08:46:08.330Z,1.30
2022-11-02T08:48:24.806Z,0.70
2022-11-02T08:50:52.310Z,0.90
2022-11-02T08:53:19.971Z,0.60
2022-11-02T08:55:47.233Z,0.57
2022-11-02T08:58:14.498Z,0.77
2022-11-02T09:00:41.716Z,0.75
2022-11-02T09:03:12.048Z,0.40
2022-11-02T09:05:43.983Z,1.35
2022-11-02T09:08:13.846Z,0.32
2022-11-02T09:10:41.463Z,0.55
2022-11-02T09:13:14.319Z,0.43
2022-11-02T09:15:42.108Z,0.57
2022-11-02T09:18:09.674Z,0.70
2022-11-02T09:20:37.174Z,0.55
2022-11-02T09:23:04.596Z,0.45
2022-11-02T09:25:31.975Z,0.20
2022-11-02T09:27:59.821Z,0.40
2022-11-02T09:30:28.876Z,0.70
2022-11-02T09:33:04.639Z,0.30
2022-11-02T09:35:35.530Z,0.40
2022-11-02T09:38:03.790Z,1.05
2022-11-02T09:40:37.782Z,0.43
2022-11-02T09:43:40.643Z,0.30
2022-11-02T09:46:30.623Z,0.55
2022-11-02T09:49:13.980Z,0.50
2022-11-02T09:51:48.867Z,0.55
2022-11-02T09:54:20.890Z,0.47
2022-11-02T09:59:26.273Z,0.50
2022-11-02T10:02:40.665Z,0.32
2022-11-02T10:05:10.817Z,0.47
2022-11-02T10:08:00.385Z,0.38
2022-11-02T10:11:14.200Z,0.30
2022-11-02T10:14:07.236Z,0.25
2022-11-02T10:16:38.178Z,0.20
2022-11-02T10:19:13.921Z,0.17
2022-11-02T10:21:46.365Z,0.80
2022-11-02T10:24:32.281Z,0.30
2022-11-02T10:27:01.816Z,0.57
2022-11-02T10:30:01.069Z,0.68
2022-11-02T10:32:30.464Z,0.20
2022-11-02T10:35:17.596Z,0.22
2022-11-02T10:38:16.229Z,0.32
2022-11-02T10:41:06.368Z,0.70
2022-11-02T10:44:06.113Z,0.57
2022-11-02T10:47:02.321Z,0.30
2022-11-02T10:50:00.855Z,0.75
2022-11-02T10:52:36.714Z,0.60
2022-11-02T10:55:18.701Z,0.20
2022-11-02T10:57:48.656Z,0.40
2022-11-02T11:00:27.744Z,0.38
2022-11-02T11:03:24.432Z,0.30
2022-11-02T11:06:03.986Z,0.57
2022-11-02T11:08:46.920Z,0.68
2022-11-02T11:11:26.463Z,0.30
2022-11-02T11:19:52.734Z,0.10
2022-11-02T11:22:33.799Z,0.50
2022-11-02T11:25:27.508Z,0.30
2022-11-02T11:27:57.898Z,0.40
2022-11-02T11:33:25.505Z,0.80
2022-11-02T11:35:52.910Z,0.60
2022-11-02T11:38:23.797Z,0.10
2022-11-02T11:40:54.614Z,0.30
2022-11-02T11:43:26.022Z,0.40
2022-11-02T11:46:01.901Z,0.40
2022-11-02T11:48:54.125Z,0.60
2022-11-02T11:51:43.225Z,0.20
2022-11-02T11:54:29.087Z,0.17
2022-11-02T11:57:20.518Z,0.30
2022-11-02T11:59:52.090Z,0.40
2022-11-02T12:02:30.955Z,0.57
2022-11-02T12:05:01.503Z,0.38
2022-11-02T12:07:55.848Z,0.63
2022-11-02T12:10:41.259Z,0.57
2022-11-02T12:13:30.401Z,0.30
2022-11-02T12:16:42.983Z,0.32
2022-11-02T12:22:22.776Z,0.40
2022-11-02T12:25:19.513Z,0.50
2022-11-02T12:28:00.912Z,1.75
2022-11-02T12:31:35.843Z,0.20
2022-11-02T12:34:30.973Z,0.45
2022-11-02T12:37:40.418Z,0.57
2022-11-02T12:40:35.561Z,0.30
2022-11-02T12:43:23.393Z,0.68
2022-11-02T12:46:10.228Z,0.70
2022-11-02T12:49:04.795Z,0.57
2022-11-02T12:51:45.603Z,0.60
2022-11-02T12:54:21.056Z,0.20
2022-11-02T12:56:51.242Z,0.40
2022-11-02T12:59:36.595Z,0.63
2022-11-02T13:02:20.850Z,0.30
2022-11-02T13:04:54.282Z,0.70
2022-11-02T13:07:57.105Z,0.35
2022-11-02T13:10:33.386Z,0.93
2022-11-02T13:13:04.448Z,0.57
2022-11-02T13:15:34.798Z,0.50
2022-11-02T13:18:16.843Z,0.32
2022-11-02T13:20:55.101Z,0.60
2022-11-02T13:23:57.272Z,0.98
2022-11-02T13:26:34.235Z,0.50
2022-11-02T13:29:12.343Z,0.20
2022-11-02T13:31:44.107Z,0.32
2022-11-02T13:34:15.643Z,0.10
2022-11-02T13:36:44.284Z,0.10
2022-11-02T13:39:25.080Z,0.45
2022-11-02T13:42:34.219Z,0.22
2022-11-02T13:45:15.832Z,0.30
2022-11-02T13:48:15.227Z,0.32
2022-11-02T13:50:55.695Z,0.30
2022-11-02T13:53:28.931Z,0.45
2022-11-02T13:56:06.076Z,0.20
2022-11-02T13:58:47.100Z,0.40
2022-11-02T14:01:19.171Z,0.38
2022-11-02T14:03:54.042Z,0.50
2022-11-02T14:06:25.845Z,0.20
2022-11-02T14:08:59.486Z,0.30
2022-11-02T14:11:47.802Z,0.30
2022-11-02T14:14:25.670Z,0.82
2022-11-02T14:17:17.956Z,0.20
2022-11-02T14:22:21.096Z,0.30
2022-11-02T14:24:53.973Z,0.20
2022-11-02T14:27:30.890Z,0.52
2022-11-02T14:29:59.041Z,0.20
2022-11-02T14:32:42.390Z,0.40
2022-11-02T14:35:40.302Z,0.38
2022-11-02T14:38:30.814Z,0.22
2022-11-02T14:41:40.439Z,0.20
2022-11-02T14:44:22.393Z,0.30
2022-11-02T14:47:00.072Z,1.00
2022-11-02T14:49:31.017Z,0.25
2022-11-02T14:52:22.838Z,0.30
2022-11-02T14:55:03.390Z,0.57
2022-11-02T14:57:42.534Z,0.38
2022-11-02T15:00:24.620Z,0.20
2022-11-02T15:05:38.220Z,0.70
2022-11-02T15:08:20.757Z,0.93
2022-11-02T15:10:48.002Z,0.75
2022-11-02T15:13:47.682Z,0.80
2022-11-02T15:16:16.660Z,0.30
2022-11-02T15:18:43.970Z,0.50
2022-11-02T15:21:31.437Z,0.73
2022-11-02T15:24:30.451Z,0.43
2022-11-02T15:27:00.678Z,0.30
2022-11-02T15:29:46.108Z,0.40
2022-11-02T15:32:22.760Z,0.68
2022-11-02T15:34:53.513Z,1.10
2022-11-02T15:37:26.919Z,1.33
2022-11-02T15:39:57.023Z,1.25
2022-11-02T15:42:40.422Z,0.80
2022-11-02T15:46:05.136Z,0.70
2022-11-02T15:48:46.177Z,0.90
2022-11-02T15:51:47.361Z,0.60
2022-11-02T15:54:49.592Z,1.40
2022-11-02T15:57:36.709Z,1.05
2022-11-02T16:00:17.919Z,1.67
2022-11-02T16:02:51.282Z,1.20
2022-11-02T16:05:26.742Z,2.25
2022-11-02T16:08:11.767Z,1.75
2022-11-02T16:10:39.441Z,1.83
2022-11-02T16:13:22.218Z,2.00
2022-11-02T16:15:50.167Z,2.80
2022-11-02T16:18:44.684Z,3.25
2022-11-02T16:21:16.819Z,2.03
2022-11-02T16:26:19.794Z,2.67
2022-11-02T16:28:55.683Z,3.03
2022-11-02T16:31:31.119Z,1.95
2022-11-02T16:34:05.291Z,1.73
2022-11-02T16:36:37.334Z,1.67
2022-11-02T16:39:20.837Z,1.25
2022-11-02T16:41:55.609Z,1.80
2022-11-02T16:44:31.613Z,2.70
2022-11-02T16:47:00.541Z,1.65
2022-11-02T16:49:28.979Z,1.85
2022-11-02T16:51:59.284Z,2.47
2022-11-02T16:54:28.483Z,1.60
2022-11-02T16:57:00.580Z,2.22
2022-11-02T17:02:00.791Z,2.05
2022-11-02T17:04:32.585Z,2.47
2022-11-02T17:07:14.116Z,2.28
2022-11-02T17:09:42.292Z,2.15
2022-11-02T17:12:17.097Z,1.90
2022-11-02T17:14:46.859Z,2.22
2022-11-02T17:17:23.391Z,2.10
2022-11-02T17:19:58.231Z,2.85
2022-11-02T17:22:29.050Z,2.03
2022-11-02T17:25:18.916Z,2.38
2022-11-02T17:27:46.638Z,2.40
2022-11-02T17:30:42.655Z,1.95
2022-11-02T17:33:25.072Z,2.05
2022-11-02T17:35:54.539Z,2.08
2022-11-02T17:38:25.983Z,2.35
2022-11-02T17:40:54.372Z,2.78
2022-11-02T17:43:23.377Z,2.35
2022-11-02T17:45:55.775Z,2.60
2022-11-02T17:48:24.660Z,2.85
2022-11-02T17:50:54.121Z,2.67
2022-11-02T17:53:22.451Z,2.00
2022-11-02T17:55:49.997Z,2.45
2022-11-02T17:58:17.673Z,2.47
2022-11-02T18:00:44.984Z,2.00
2022-11-02T18:03:20.248Z,2.88
2022-11-02T18:05:50.301Z,3.22
2022-11-02T18:10:48.247Z,4.03
2022-11-02T18:13:18.818Z,3.42
2022-11-02T18:15:46.418Z,4.03
2022-11-02T18:18:13.778Z,3.40
2022-11-02T18:20:42.277Z,2.92
2022-11-02T18:23:17.073Z,2.70
2022-11-02T18:25:44.442Z,3.40
2022-11-02T18:28:11.810Z,3.17
2022-11-02T18:30:42.972Z,4.15
2022-11-02T18:33:13.853Z,4.03
2022-11-02T18:35:42.656Z,4.80
2022-11-02T18:38:10.267Z,3.22
2022-11-02T18:40:37.606Z,5.05
2022-11-02T18:43:05.292Z,3.92
2022-11-02T18:45:32.832Z,4.68
2022-11-02T18:48:00.135Z,4.72
2022-11-02T18:50:27.398Z,4.35
2022-11-02T18:52:54.667Z,4.32
2022-11-02T18:55:21.906Z,4.93
2022-11-02T18:57:50.950Z,4.35
2022-11-02T19:00:18.633Z,4.72
2022-11-02T19:02:45.892Z,4.40
2022-11-02T19:05:31.585Z,4.35
2022-11-02T19:08:20.478Z,5.65
2022-11-02T19:10:48.313Z,4.55
2022-11-02T19:13:16.084Z,3.87
2022-11-02T19:15:43.388Z,4.35
2022-11-02T19:18:10.706Z,4.97
2022-11-02T19:20:37.928Z,4.45
2022-11-02T19:23:05.258Z,4.53
2022-11-02T19:25:32.508Z,4.85
2022-11-02T19:27:59.794Z,4.93
2022-11-02T19:30:27.090Z,4.23
2022-11-02T19:32:54.439Z,4.00
2022-11-02T19:35:21.677Z,3.47
2022-11-02T19:37:48.961Z,3.97
2022-11-02T19:40:16.186Z,4.13
2022-11-02T19:42:43.459Z,5.17
2022-11-02T19:45:16.602Z,3.50
2022-11-02T19:47:44.337Z,4.70
2022-11-02T19:50:11.867Z,4.20
2022-11-02T19:52:39.208Z,3.97
2022-11-02T19:55:07.018Z,3.83
2022-11-02T19:57:34.305Z,3.60
2022-11-02T20:00:01.571Z,3.47
2022-11-02T20:02:28.875Z,3.00
2022-11-02T20:04:56.173Z,4.53
2022-11-02T20:07:23.419Z,3.13
2022-11-02T20:09:52.445Z,4.50
2022-11-02T20:12:21.840Z,4.13
2022-11-02T20:14:49.355Z,3.47
2022-11-02T20:17:46.420Z,4.00
2022-11-02T20:20:04.822Z,4.20
2022-11-02T20:22:32.133Z,4.90
2022-11-02T20:24:59.359Z,4.47
2022-11-02T20:27:26.639Z,3.93
2022-11-02T20:29:53.972Z,4.63
2022-11-02T20:32:22.372Z,3.20
2022-11-02T20:34:49.651Z,4.87
2022-11-02T20:37:16.909Z,3.77
2022-11-02T20:39:44.173Z,4.20
2022-11-02T20:42:11.682Z,4.37
2022-11-02T20:44:38.998Z,3.80
2022-11-02T20:47:06.361Z,3.63
2022-11-02T20:49:50.088Z,3.67
2022-11-02T20:52:18.824Z,4.17
2022-11-02T20:54:46.101Z,3.67
2022-11-02T20:57:13.357Z,3.10
2022-11-02T20:59:40.651Z,3.03
2022-11-02T21:02:11.376Z,3.53
2022-11-02T21:04:38.826Z,3.33
2022-11-02T21:07:07.399Z,3.63
2022-11-02T21:09:35.693Z,3.27
2022-11-02T21:12:21.523Z,3.27
2022-11-02T21:14:49.549Z,3.13
2022-11-02T21:17:16.824Z,3.20
2022-11-02T21:19:44.127Z,3.57
2022-11-02T21:22:12.145Z,3.17
2022-11-02T21:24:39.453Z,4.73
2022-11-02T21:27:09.651Z,3.03
2022-11-02T21:29:36.961Z,3.07
2022-11-02T21:32:04.514Z,2.33
2022-11-02T21:34:31.807Z,2.57
2022-11-02T21:36:59.063Z,3.40
2022-11-02T21:39:26.401Z,3.00
2022-11-02T21:41:53.627Z,3.27
2022-11-02T21:44:20.926Z,2.40
2022-11-02T21:46:49.684Z,2.00
2022-11-02T21:49:16.987Z,2.30
2022-11-02T21:51:44.522Z,2.40
2022-11-02T21:54:11.826Z,2.07
2022-11-02T21:56:39.645Z,1.90
2022-11-02T21:59:09.173Z,1.83
2022-11-02T22:01:46.810Z,2.17
2022-11-02T22:04:25.678Z,1.87
2022-11-02T22:06:53.555Z,1.87
2022-11-02T22:09:21.058Z,1.73
2022-11-02T22:12:08.631Z,1.83
2022-11-02T22:14:39.581Z,1.30
2022-11-02T22:17:16.724Z,2.07
2022-11-02T22:19:50.769Z,2.13
2022-11-02T22:22:18.612Z,1.93
2022-11-02T22:24:46.041Z,1.60
2022-11-02T22:27:13.331Z,1.60
2022-11-02T22:29:40.601Z,2.00
2022-11-02T22:32:07.874Z,1.37
2022-11-02T22:34:35.132Z,1.87
2022-11-02T22:37:22.332Z,1.57
2022-11-02T22:39:49.657Z,1.57
2022-11-02T22:42:16.869Z,2.13
2022-11-02T22:44:44.176Z,1.60
2022-11-02T22:47:11.428Z,1.30
2022-11-02T22:49:38.743Z,1.40
2022-11-02T22:52:06.003Z,1.80
2022-11-02T22:54:33.308Z,1.90
2022-11-02T22:57:00.625Z,1.30
2022-11-02T22:59:27.902Z,1.77
2022-11-02T23:01:55.308Z,1.33
2022-11-02T23:04:23.140Z,1.50
2022-11-02T23:06:50.456Z,1.10
2022-11-02T23:09:17.714Z,1.87
2022-11-02T23:11:44.994Z,2.10
2022-11-02T23:14:14.538Z,1.83
2022-11-02T23:16:44.091Z,1.53
2022-11-02T23:19:27.088Z,1.73
2022-11-02T23:22:18.423Z,1.63
2022-11-02T23:25:09.894Z,1.70
2022-11-02T23:27:58.222Z,1.60
2022-11-02T23:30:49.028Z,1.07
2022-11-02T23:33:16.983Z,1.87
2022-11-02T23:36:03.288Z,1.83
2022-11-02T23:38:50.543Z,1.70
2022-11-02T23:41:19.092Z,2.17
2022-11-02T23:43:46.853Z,1.77
2022-11-02T23:46:14.462Z,1.60
2022-11-02T23:48:42.087Z,2.00
2022-11-02T23:51:29.155Z,1.33
2022-11-02T23:54:15.121Z,1.90
2022-11-02T23:56:46.113Z,1.57
2022-11-02T23:59:15.989Z,1.73
